Whittier, California
Current Conditions -  °F | °C
As of 6:53 PM on Saturday 22 Nov 2014 (Local Time) from KFUL Reporting Station
Clear Clear  
Wind Chill: 17°   Ceiling: Unl
Heat Index: 17°   Visibility: 10mi
Dew Point: 14°   Wind: 0mph
Humidity: 81%   Direction: NA
Pressure: 30.01"   Gusts: NA
Location:  33.98°N, 118.03°W
Report Text: KFUL 230253Z 00000KT 10SM CLR 17/14 A3001 RMK AO2 SLP161 T01720139 53002
Loading
Personal Weather Stations






























Interactive Weather Map New forecast layout! Learn more

10-Day Weather Forecast

Advertisements
Track Severe Weather on mobile